createdAt,value
2022-07-29T00:02:06.554Z,17.43
2022-07-29T00:08:14.193Z,17.44
2022-07-29T00:14:01.265Z,17.65
2022-07-29T00:19:48.294Z,17.49
2022-07-29T00:25:35.078Z,17.49
2022-07-29T00:31:21.894Z,17.51
2022-07-29T00:37:08.821Z,17.34
2022-07-29T00:42:55.861Z,17.44
2022-07-29T00:48:50.466Z,17.38
2022-07-29T00:54:44.246Z,17.43
2022-07-29T01:00:31.909Z,17.21
2022-07-29T01:06:19.901Z,17.46
2022-07-29T01:12:07.522Z,17.22
2022-07-29T01:18:03.276Z,17.37
2022-07-29T01:24:14.203Z,17.25
2022-07-29T01:30:05.240Z,17.32
2022-07-29T01:35:52.485Z,17.41
2022-07-29T01:41:45.290Z,17.38
2022-07-29T01:48:07.153Z,17.48
2022-07-29T01:54:18.746Z,17.62
2022-07-29T02:00:06.593Z,17.52
2022-07-29T02:05:59.891Z,17.54
2022-07-29T02:11:50.676Z,17.38
2022-07-29T02:17:44.857Z,17.19
2022-07-29T02:23:50.280Z,17.50
2022-07-29T02:29:39.588Z,17.41
2022-07-29T02:35:27.010Z,17.24
2022-07-29T02:41:18.472Z,17.05
2022-07-29T02:47:14.749Z,16.89
2022-07-29T02:53:19.883Z,16.95
2022-07-29T02:59:12.571Z,16.95
2022-07-29T03:05:01.138Z,16.72
2022-07-29T03:10:49.054Z,16.73
2022-07-29T03:16:41.175Z,16.67
2022-07-29T03:22:28.717Z,16.65
2022-07-29T03:28:18.575Z,16.69
2022-07-29T03:34:05.870Z,16.56
2022-07-29T03:39:56.013Z,16.50
2022-07-29T03:45:45.366Z,16.52
2022-07-29T03:51:34.071Z,16.44
2022-07-29T03:57:25.791Z,16.31
2022-07-29T04:03:13.585Z,16.31
2022-07-29T04:09:02.643Z,16.34
2022-07-29T04:14:49.710Z,16.07
2022-07-29T04:20:36.528Z,16.04
2022-07-29T04:26:23.214Z,16.09
2022-07-29T04:32:10.023Z,16.04
2022-07-29T04:37:56.880Z,16.20
2022-07-29T04:43:43.761Z,16.22
2022-07-29T04:49:30.506Z,16.30
2022-07-29T04:55:17.402Z,16.50
2022-07-29T05:01:10.441Z,16.54
2022-07-29T05:06:57.302Z,16.80
2022-07-29T05:12:44.437Z,18.11
2022-07-29T05:18:34.357Z,19.48
2022-07-29T05:24:24.149Z,19.54
2022-07-29T05:30:13.626Z,20.68
2022-07-29T05:36:01.165Z,21.34
2022-07-29T05:41:51.888Z,21.18
2022-07-29T05:47:38.904Z,20.00
2022-07-29T05:53:25.657Z,19.07
2022-07-29T05:59:18.299Z,18.66
2022-07-29T06:05:18.037Z,18.37
2022-07-29T06:11:17.892Z,18.29
2022-07-29T06:17:08.837Z,18.60
2022-07-29T06:22:55.659Z,18.48
2022-07-29T06:28:42.463Z,18.46
2022-07-29T06:34:30.417Z,18.32
2022-07-29T06:40:36.874Z,18.64
2022-07-29T06:46:24.346Z,18.95
2022-07-29T06:52:11.557Z,18.92
2022-07-29T06:58:01.174Z,18.84
2022-07-29T07:03:55.669Z,19.14
2022-07-29T07:09:52.341Z,19.03
2022-07-29T07:15:40.378Z,19.35
2022-07-29T07:21:30.341Z,19.69
2022-07-29T07:28:02.012Z,19.86
2022-07-29T07:33:50.431Z,19.68
2022-07-29T07:39:40.337Z,20.02
2022-07-29T07:45:30.778Z,20.16
2022-07-29T07:51:17.539Z,20.21
2022-07-29T07:57:07.881Z,20.39
2022-07-29T08:03:02.062Z,20.51
2022-07-29T08:09:19.511Z,21.30
2022-07-29T08:15:07.886Z,22.06
2022-07-29T08:20:55.418Z,22.48
2022-07-29T08:27:00.768Z,22.53
2022-07-29T08:32:54.113Z,23.16
2022-07-29T08:38:44.660Z,23.74
2022-07-29T08:44:33.020Z,24.11
2022-07-29T08:50:22.263Z,24.86
2022-07-29T08:56:14.995Z,25.05
2022-07-29T09:02:05.753Z,23.67
2022-07-29T09:07:58.071Z,24.91
2022-07-29T09:13:48.275Z,25.00
2022-07-29T09:19:45.577Z,25.29
2022-07-29T09:25:34.876Z,24.80
2022-07-29T09:31:34.057Z,25.85
2022-07-29T09:37:30.604Z,25.43
2022-07-29T09:43:17.748Z,26.36
2022-07-29T09:49:16.434Z,26.43
2022-07-29T09:55:08.166Z,26.54
2022-07-29T10:00:56.608Z,27.03
2022-07-29T10:07:06.165Z,27.83
2022-07-29T10:13:08.933Z,26.85
2022-07-29T10:19:00.095Z,27.18
2022-07-29T10:24:50.272Z,26.24
2022-07-29T10:30:41.164Z,26.78
2022-07-29T10:36:37.220Z,27.22
2022-07-29T10:49:15.388Z,27.95
2022-07-29T10:55:43.212Z,27.70
2022-07-29T11:01:37.289Z,27.78
2022-07-29T11:07:45.747Z,27.47
2022-07-29T11:13:53.339Z,27.23
2022-07-29T11:19:46.784Z,27.02
2022-07-29T11:25:50.866Z,27.20
2022-07-29T11:31:45.432Z,28.35
2022-07-29T11:37:42.571Z,28.32
2022-07-29T11:49:59.927Z,27.71
2022-07-29T11:56:08.518Z,27.62
2022-07-29T12:02:18.340Z,27.63
2022-07-29T12:08:35.719Z,28.75
2022-07-29T12:14:53.166Z,28.77
2022-07-29T12:20:44.172Z,27.39
2022-07-29T12:26:37.578Z,26.82
2022-07-29T12:32:30.943Z,26.64
2022-07-29T12:38:26.115Z,27.18
2022-07-29T12:44:12.952Z,28.31
2022-07-29T12:50:37.833Z,28.16
2022-07-29T12:56:42.399Z,27.07
2022-07-29T13:02:30.639Z,26.95
2022-07-29T13:08:22.782Z,27.43
2022-07-29T13:14:12.042Z,28.35
2022-07-29T13:20:20.339Z,28.57
2022-07-29T13:26:20.622Z,27.48
2022-07-29T13:32:08.427Z,26.84
2022-07-29T13:37:55.312Z,26.77
2022-07-29T13:43:42.212Z,26.59
2022-07-29T13:49:29.204Z,26.53
2022-07-29T13:55:16.042Z,27.47
2022-07-29T14:01:06.152Z,28.20
2022-07-29T14:06:53.242Z,28.45
2022-07-29T14:12:40.329Z,28.54
2022-07-29T14:18:28.571Z,28.11
2022-07-29T14:24:16.261Z,28.03
2022-07-29T14:30:09.136Z,27.81
2022-07-29T14:35:56.032Z,27.66
2022-07-29T14:41:47.898Z,27.71
2022-07-29T14:47:35.137Z,27.99
2022-07-29T14:53:22.075Z,28.19
2022-07-29T14:59:08.855Z,27.91
2022-07-29T15:04:55.608Z,27.09
2022-07-29T15:10:42.515Z,26.82
2022-07-29T15:16:29.403Z,27.18
2022-07-29T15:22:19.179Z,27.53
2022-07-29T15:28:09.259Z,27.31
2022-07-29T15:33:58.769Z,27.70
2022-07-29T15:39:48.345Z,27.30
2022-07-29T15:45:40.829Z,27.52
2022-07-29T15:51:28.910Z,27.83
2022-07-29T15:57:16.735Z,27.87
2022-07-29T16:03:04.145Z,27.86
2022-07-29T16:08:55.926Z,27.96
2022-07-29T16:14:49.478Z,27.74
2022-07-29T16:28:51.649Z,27.21
2022-07-29T17:12:00.728Z,27.24
2022-07-29T17:17:55.280Z,26.90
2022-07-29T17:24:16.641Z,27.02
2022-07-29T17:30:59.292Z,27.10
2022-07-29T17:43:55.305Z,27.00
2022-07-29T17:49:46.200Z,27.08
2022-07-29T17:55:41.717Z,27.01
2022-07-29T18:01:38.516Z,26.61
2022-07-29T18:08:10.144Z,26.52
2022-07-29T18:14:41.716Z,26.17
2022-07-29T18:45:19.124Z,25.07
2022-07-29T18:58:31.762Z,24.85
2022-07-29T19:06:01.260Z,24.76
2022-07-29T19:20:54.676Z,24.36
2022-07-29T19:25:53.534Z,24.18
2022-07-29T19:31:44.214Z,24.14
2022-07-29T19:37:31.569Z,23.85
2022-07-29T19:43:51.561Z,23.62
2022-07-29T19:49:37.222Z,23.29
2022-07-29T19:55:24.248Z,23.08
2022-07-29T20:01:11.611Z,22.97
2022-07-29T20:07:03.492Z,22.77
2022-07-29T20:12:51.273Z,22.77
2022-07-29T20:18:40.629Z,22.66
2022-07-29T20:24:27.546Z,22.62
2022-07-29T20:30:14.582Z,22.46
2022-07-29T20:36:01.342Z,22.49
2022-07-29T20:41:48.746Z,22.45
2022-07-29T20:47:35.723Z,22.15
2022-07-29T20:53:23.489Z,22.11
2022-07-29T20:59:11.353Z,21.92
2022-07-29T21:05:00.875Z,21.73
2022-07-29T21:10:47.959Z,21.64
2022-07-29T21:16:34.948Z,21.55
2022-07-29T21:22:22.552Z,21.42
2022-07-29T21:28:29.685Z,21.31
2022-07-29T21:34:19.267Z,21.28
2022-07-29T21:40:07.481Z,21.17
2022-07-29T21:45:57.535Z,21.04
2022-07-29T21:51:44.691Z,21.28
2022-07-29T21:57:34.459Z,21.18
2022-07-29T22:03:23.730Z,21.10
2022-07-29T22:09:11.200Z,20.80
2022-07-29T22:14:59.966Z,20.83
2022-07-29T22:20:47.749Z,20.85
2022-07-29T22:26:38.395Z,20.92
2022-07-29T22:32:25.654Z,20.77
2022-07-29T22:38:12.452Z,20.71
2022-07-29T22:43:59.347Z,20.63
2022-07-29T22:49:46.566Z,20.66
2022-07-29T22:55:33.422Z,20.58
2022-07-29T23:01:37.513Z,20.50
2022-07-29T23:07:24.929Z,20.48
2022-07-29T23:13:11.968Z,20.42
2022-07-29T23:18:58.737Z,20.42
2022-07-29T23:24:45.517Z,20.30
2022-07-29T23:30:32.478Z,20.22
2022-07-29T23:36:20.941Z,20.25
2022-07-29T23:42:07.670Z,20.03
2022-07-29T23:47:54.454Z,20.02
2022-07-29T23:53:53.730Z,20.02
2022-07-29T23:59:41.052Z,19.90
